createdAt,value
2018-04-19T00:00:19.514Z,47.31
2018-04-19T00:02:47.023Z,46.95
2018-04-19T00:05:14.499Z,46.93
2018-04-19T00:07:41.982Z,47.29
2018-04-19T00:10:09.456Z,51.14
2018-04-19T00:12:36.954Z,47.69
2018-04-19T00:15:04.430Z,51.05
2018-04-19T00:17:32.030Z,48.54
2018-04-19T00:19:59.530Z,48.61
2018-04-19T00:22:27.006Z,48.60
2018-04-19T00:24:54.521Z,53.92
2018-04-19T00:27:22.015Z,51.37
2018-04-19T00:29:49.605Z,50.49
2018-04-19T00:32:17.856Z,52.41
2018-04-19T00:34:45.429Z,52.43
2018-04-19T00:37:12.925Z,48.17
2018-04-19T00:39:40.529Z,51.06
2018-04-19T00:42:08.048Z,51.25
2018-04-19T00:44:35.557Z,50.33
2018-04-19T00:47:03.039Z,50.01
2018-04-19T00:49:30.513Z,50.24
2018-04-19T00:51:58.056Z,49.44
2018-04-19T00:54:25.537Z,49.61
2018-04-19T00:56:53.013Z,49.88
2018-04-19T00:59:20.508Z,51.70
2018-04-19T01:01:48.017Z,51.17
2018-04-19T01:04:15.509Z,48.57
2018-04-19T01:06:42.973Z,50.37
2018-04-19T01:09:10.460Z,51.71
2018-04-19T01:11:37.924Z,47.92
2018-04-19T01:14:05.411Z,51.43
2018-04-19T01:16:32.901Z,49.48
2018-04-19T01:19:00.375Z,51.96
2018-04-19T01:21:27.872Z,49.40
2018-04-19T01:23:55.364Z,51.59
2018-04-19T01:26:22.845Z,49.06
2018-04-19T01:28:51.166Z,49.67
2018-04-19T01:31:18.826Z,50.49
2018-04-19T01:33:46.310Z,52.33
2018-04-19T01:36:25.913Z,54.29
2018-04-19T01:38:53.467Z,52.41
2018-04-19T01:41:20.969Z,50.38
2018-04-19T01:43:48.465Z,54.70
2018-04-19T01:46:15.964Z,53.26
2018-04-19T01:48:43.513Z,53.39
2018-04-19T01:51:11.013Z,54.14
2018-04-19T01:53:38.501Z,52.90
2018-04-19T01:56:05.962Z,52.66
2018-04-19T01:58:33.446Z,52.96
2018-04-19T02:01:00.953Z,56.35
2018-04-19T02:03:28.472Z,54.20
2018-04-19T02:05:56.053Z,53.16
2018-04-19T02:08:23.536Z,53.37
2018-04-19T02:10:51.008Z,56.84
2018-04-19T02:13:18.481Z,54.47
2018-04-19T02:15:45.985Z,55.14
2018-04-19T02:18:13.534Z,56.59
2018-04-19T02:20:41.127Z,53.71
2018-04-19T02:23:08.607Z,56.28
2018-04-19T02:25:36.106Z,56.86
2018-04-19T02:28:03.598Z,54.10
2018-04-19T02:30:31.074Z,55.19
2018-04-19T02:32:58.579Z,55.00
2018-04-19T02:35:26.098Z,54.92
2018-04-19T02:37:53.654Z,56.78
2018-04-19T02:40:21.194Z,58.07
2018-04-19T02:42:48.700Z,56.71
2018-04-19T02:45:16.198Z,55.35
2018-04-19T02:47:43.661Z,59.49
2018-04-19T02:50:11.186Z,58.11
2018-04-19T02:52:38.689Z,59.46
2018-04-19T02:55:06.204Z,55.74
2018-04-19T02:57:33.703Z,55.68
2018-04-19T03:00:01.211Z,58.17
2018-04-19T03:02:28.712Z,55.77
2018-04-19T03:04:56.183Z,57.45
2018-04-19T03:07:23.686Z,57.22
2018-04-19T03:09:51.190Z,58.85
2018-04-19T03:12:18.657Z,58.40
2018-04-19T03:14:46.144Z,57.92
2018-04-19T03:17:13.639Z,60.54
2018-04-19T03:19:41.119Z,59.87
2018-04-19T03:22:08.625Z,58.95
2018-04-19T03:24:36.338Z,60.21
2018-04-19T03:27:04.454Z,62.59
2018-04-19T03:29:31.991Z,58.74
2018-04-19T03:31:59.467Z,60.02
2018-04-19T03:34:26.967Z,59.20
2018-04-19T03:36:54.456Z,59.56
2018-04-19T03:39:21.937Z,59.77
2018-04-19T03:41:49.445Z,62.68
2018-04-19T03:44:16.928Z,59.97
2018-04-19T03:46:44.409Z,61.48
2018-04-19T03:49:11.935Z,59.39
2018-04-19T03:51:39.465Z,59.65
2018-04-19T03:54:06.956Z,59.50
2018-04-19T03:56:34.463Z,61.95
2018-04-19T03:59:01.964Z,63.64
2018-04-19T04:01:29.458Z,59.00
2018-04-19T04:03:56.941Z,61.03
2018-04-19T04:06:24.549Z,58.51
2018-04-19T04:08:52.058Z,61.52
2018-04-19T04:11:19.554Z,59.41
2018-04-19T04:13:47.059Z,59.24
2018-04-19T04:16:26.395Z,60.41
2018-04-19T04:19:05.805Z,60.96
2018-04-19T04:21:33.328Z,62.02
2018-04-19T04:24:00.839Z,63.50
2018-04-19T04:26:28.323Z,64.31
2018-04-19T04:28:55.792Z,65.24
2018-04-19T04:31:23.291Z,66.23
2018-04-19T04:33:50.888Z,66.05
2018-04-19T04:36:18.378Z,66.18
2018-04-19T04:38:45.861Z,68.49
2018-04-19T04:41:13.367Z,69.61
2018-04-19T04:43:40.909Z,68.02
2018-04-19T04:46:08.357Z,66.52
2018-04-19T04:48:35.970Z,62.58
2018-04-19T04:51:03.456Z,62.12
2018-04-19T04:53:30.941Z,62.80
2018-04-19T04:55:58.443Z,63.02
2018-04-19T04:58:25.924Z,64.06
2018-04-19T05:00:53.400Z,61.70
2018-04-19T05:03:20.888Z,60.11
2018-04-19T05:05:48.384Z,60.74
2018-04-19T05:08:20.434Z,59.35
2018-04-19T05:10:47.920Z,61.91
2018-04-19T05:13:15.533Z,58.85
2018-04-19T05:15:43.124Z,57.10
2018-04-19T05:18:10.616Z,55.67
2018-04-19T05:20:38.140Z,54.75
2018-04-19T05:23:05.634Z,58.27
2018-04-19T05:25:33.158Z,53.51
2018-04-19T05:28:00.678Z,56.77
2018-04-19T05:30:28.236Z,56.52
2018-04-19T05:32:55.801Z,56.68
2018-04-19T05:37:57.153Z,55.50
2018-04-19T05:40:24.630Z,52.35
2018-04-19T05:42:52.141Z,55.37
2018-04-19T05:45:19.640Z,53.13
2018-04-19T05:47:47.169Z,55.62
2018-04-19T05:50:14.656Z,52.40
2018-04-19T05:52:42.207Z,52.97
2018-04-19T05:55:09.761Z,55.57
2018-04-19T05:57:37.265Z,54.36
2018-04-19T06:00:04.777Z,54.14
2018-04-19T06:02:32.253Z,53.73
2018-04-19T06:04:59.734Z,52.67
2018-04-19T06:07:27.350Z,53.63
2018-04-19T06:09:54.845Z,54.49
2018-04-19T06:12:22.301Z,55.57
2018-04-19T06:14:49.808Z,55.00
2018-04-19T06:17:17.298Z,57.36
2018-04-19T06:19:44.795Z,55.63
2018-04-19T06:22:12.328Z,54.87
2018-04-19T06:24:39.878Z,52.60
2018-04-19T06:27:07.424Z,48.42
2018-04-19T06:29:34.969Z,48.45
2018-04-19T06:32:02.433Z,49.65
2018-04-19T06:34:29.912Z,47.62
2018-04-19T06:36:57.397Z,49.55
2018-04-19T06:39:24.880Z,48.75
2018-04-19T06:41:52.462Z,46.08
2018-04-19T06:44:19.983Z,46.70
2018-04-19T06:46:47.503Z,46.72
2018-04-19T06:49:15.011Z,49.91
2018-04-19T06:51:42.625Z,47.11
2018-04-19T06:54:10.127Z,48.55
2018-04-19T06:56:37.602Z,46.94
2018-04-19T06:59:05.074Z,45.36
2018-04-19T07:01:32.555Z,44.20
2018-04-19T07:04:00.045Z,42.54
2018-04-19T07:06:27.740Z,44.07
2018-04-19T07:08:55.226Z,44.69
2018-04-19T07:11:22.712Z,44.05
2018-04-19T07:13:50.194Z,44.67
2018-04-19T07:16:17.684Z,43.63
2018-04-19T07:18:45.168Z,43.85
2018-04-19T07:21:12.636Z,40.04
2018-04-19T07:23:40.112Z,41.74
2018-04-19T07:26:07.587Z,41.64
2018-04-19T07:28:35.123Z,40.01
2018-04-19T07:31:02.648Z,41.04
2018-04-19T07:33:30.202Z,37.40
2018-04-19T07:35:57.657Z,39.05
2018-04-19T07:38:25.163Z,39.18
2018-04-19T07:40:52.695Z,38.55
2018-04-19T07:43:20.218Z,36.86
2018-04-19T07:45:47.702Z,35.37
2018-04-19T07:48:15.276Z,36.48
2018-04-19T07:50:43.076Z,38.30
2018-04-19T07:53:10.547Z,39.43
2018-04-19T07:55:38.141Z,37.51
2018-04-19T07:58:05.660Z,34.53
2018-04-19T08:00:33.124Z,38.09
2018-04-19T08:03:00.619Z,34.98
2018-04-19T08:05:28.170Z,35.69
2018-04-19T08:07:55.617Z,33.89
2018-04-19T08:10:23.107Z,34.88
2018-04-19T08:12:50.593Z,35.25
2018-04-19T08:15:18.064Z,34.67
2018-04-19T08:17:45.553Z,34.26
2018-04-19T08:20:13.036Z,36.59
2018-04-19T08:22:40.510Z,32.46
2018-04-19T08:25:08.013Z,34.25
2018-04-19T08:27:35.482Z,31.80
2018-04-19T08:30:02.957Z,32.41
2018-04-19T08:32:30.427Z,33.95
2018-04-19T08:34:57.958Z,31.47
2018-04-19T08:37:25.410Z,31.12
2018-04-19T08:39:52.943Z,33.78
2018-04-19T08:42:20.442Z,33.37
2018-04-19T08:44:47.912Z,30.53
2018-04-19T08:47:15.397Z,31.02
2018-04-19T08:49:42.887Z,32.98
2018-04-19T08:52:10.380Z,32.94
2018-04-19T08:54:37.893Z,31.64
2018-04-19T08:57:05.369Z,30.21
2018-04-19T08:59:32.859Z,29.49
2018-04-19T09:02:00.313Z,31.67
2018-04-19T09:04:27.797Z,29.88
2018-04-19T09:06:55.283Z,32.95
2018-04-19T09:09:22.769Z,31.33
2018-04-19T09:11:50.256Z,28.33
2018-04-19T09:14:17.790Z,28.91
2018-04-19T09:16:45.257Z,27.91
2018-04-19T09:19:12.751Z,30.55
2018-04-19T09:21:40.251Z,27.12
2018-04-19T09:24:07.732Z,27.91
2018-04-19T09:26:35.372Z,30.13
2018-04-19T09:29:02.936Z,28.84
2018-04-19T09:31:30.391Z,29.99
2018-04-19T09:33:57.871Z,28.68
2018-04-19T09:36:25.359Z,26.25
2018-04-19T09:38:52.818Z,28.84
2018-04-19T09:41:20.304Z,28.00
2018-04-19T09:43:47.775Z,27.34
2018-04-19T09:46:15.230Z,27.22
2018-04-19T09:48:42.695Z,28.76
2018-04-19T09:51:10.155Z,28.66
2018-04-19T09:53:37.644Z,27.56
2018-04-19T09:56:05.114Z,29.30
2018-04-19T09:58:32.665Z,29.15
2018-04-19T10:01:05.950Z,26.40
2018-04-19T10:03:39.120Z,28.47
2018-04-19T10:06:08.430Z,26.50
2018-04-19T10:08:35.907Z,25.15
2018-04-19T10:11:03.420Z,24.75
2018-04-19T10:13:30.894Z,25.59
2018-04-19T10:15:58.439Z,27.03
2018-04-19T10:18:25.892Z,24.74
2018-04-19T10:20:53.371Z,26.75
2018-04-19T10:23:20.823Z,24.79
2018-04-19T10:25:48.332Z,28.44
2018-04-19T10:28:15.818Z,24.95
2018-04-19T10:30:43.378Z,28.03
2018-04-19T10:33:10.885Z,27.90
2018-04-19T10:35:38.346Z,26.24
2018-04-19T10:38:05.832Z,27.46
2018-04-19T10:40:33.360Z,24.25
2018-04-19T10:43:00.857Z,26.17
2018-04-19T10:45:28.326Z,24.84
2018-04-19T10:47:55.804Z,25.79
2018-04-19T10:50:23.260Z,25.66
2018-04-19T10:52:50.774Z,25.21
2018-04-19T10:55:18.238Z,26.74
2018-04-19T10:57:45.717Z,25.61
2018-04-19T11:00:13.209Z,25.33
2018-04-19T11:02:41.733Z,25.22
2018-04-19T11:05:09.212Z,26.11
2018-04-19T11:07:36.897Z,25.17
2018-04-19T11:10:04.383Z,23.71
2018-04-19T11:12:31.865Z,24.04
2018-04-19T11:14:59.348Z,25.15
2018-04-19T11:17:26.836Z,23.99
2018-04-19T11:19:54.401Z,24.61
2018-04-19T11:22:21.883Z,23.62
2018-04-19T11:24:49.488Z,25.46
2018-04-19T11:27:16.990Z,23.04
2018-04-19T11:29:44.491Z,22.98
2018-04-19T11:32:12.002Z,22.25
2018-04-19T11:34:39.545Z,21.78
2018-04-19T11:37:07.031Z,21.86
2018-04-19T11:39:35.576Z,21.74
2018-04-19T11:42:03.162Z,21.03
2018-04-19T11:44:30.636Z,21.32
2018-04-19T11:46:58.117Z,20.92
2018-04-19T11:49:25.603Z,19.52
2018-04-19T11:51:53.062Z,20.42
2018-04-19T11:54:20.532Z,18.03
2018-04-19T11:56:48.014Z,19.34
2018-04-19T11:59:15.511Z,17.45
2018-04-19T12:01:42.985Z,18.89
2018-04-19T12:04:10.470Z,17.02
2018-04-19T12:06:37.930Z,16.55
2018-04-19T12:09:06.264Z,15.44
2018-04-19T12:11:33.744Z,14.61
2018-04-19T12:14:01.222Z,13.97
2018-04-19T12:16:28.831Z,13.15
2018-04-19T12:18:56.326Z,12.51
2018-04-19T12:21:23.795Z,12.08
2018-04-19T12:23:51.272Z,11.10
2018-04-19T12:26:18.758Z,10.08
2018-04-19T12:28:46.223Z,9.50
2018-04-19T12:31:13.695Z,9.27
2018-04-19T12:33:41.182Z,9.89
2018-04-19T12:36:08.636Z,9.72
2018-04-19T12:38:36.161Z,8.61
2018-04-19T12:41:03.638Z,8.38
2018-04-19T12:43:31.161Z,7.91
2018-04-19T12:45:58.638Z,8.89
2018-04-19T12:48:26.112Z,8.04
2018-04-19T12:50:53.679Z,7.86
2018-04-19T12:53:21.149Z,8.55
2018-04-19T12:55:48.605Z,7.83
2018-04-19T12:58:16.091Z,8.15
2018-04-19T13:00:43.576Z,7.72
2018-04-19T13:03:11.072Z,7.06
2018-04-19T13:05:38.560Z,7.82
2018-04-19T13:08:06.042Z,7.45
2018-04-19T13:10:33.649Z,7.87
2018-04-19T13:13:01.216Z,6.68
2018-04-19T13:15:28.691Z,6.66
2018-04-19T13:17:56.184Z,6.61
2018-04-19T13:20:23.724Z,6.35
2018-04-19T13:22:51.342Z,6.10
2018-04-19T13:25:18.815Z,6.45
2018-04-19T13:27:46.305Z,6.35
2018-04-19T13:30:13.749Z,5.82
2018-04-19T13:32:41.245Z,5.77
2018-04-19T13:35:08.741Z,6.21
2018-04-19T13:37:36.452Z,5.63
2018-04-19T13:40:03.931Z,6.28
2018-04-19T13:42:31.410Z,5.83
2018-04-19T13:44:58.888Z,6.32
2018-04-19T13:47:26.404Z,7.68
2018-04-19T13:49:53.866Z,6.48
2018-04-19T13:52:21.336Z,7.19
2018-04-19T13:54:48.823Z,5.35
2018-04-19T13:57:16.296Z,5.70
2018-04-19T13:59:43.774Z,5.12
2018-04-19T14:02:11.318Z,5.16
2018-04-19T14:04:38.732Z,5.94
2018-04-19T14:07:06.197Z,5.83
2018-04-19T14:09:33.674Z,5.37
2018-04-19T14:12:01.156Z,5.16
2018-04-19T14:14:28.630Z,5.58
2018-04-19T14:16:56.145Z,4.78
2018-04-19T14:19:23.749Z,4.99
2018-04-19T14:21:51.296Z,4.98
2018-04-19T14:24:18.791Z,4.74
2018-04-19T14:26:46.324Z,5.61
2018-04-19T14:29:13.873Z,6.59
2018-04-19T14:31:41.331Z,5.83
2018-04-19T14:34:08.888Z,5.66
2018-04-19T14:36:42.243Z,5.48
2018-04-19T14:39:11.710Z,5.35
2018-04-19T14:41:46.961Z,6.39
2018-04-19T14:44:21.917Z,6.21
2018-04-19T14:46:51.226Z,5.97
2018-04-19T14:49:25.136Z,5.64
2018-04-19T14:51:57.226Z,5.91
2018-04-19T14:54:32.416Z,6.06
2018-04-19T14:57:00.702Z,6.13
2018-04-19T14:59:28.192Z,5.85
2018-04-19T15:01:55.749Z,5.31
2018-04-19T15:04:23.236Z,6.49
2018-04-19T15:06:50.725Z,6.03
2018-04-19T15:09:18.236Z,6.47
2018-04-19T15:11:45.699Z,5.62
2018-04-19T15:14:13.201Z,5.92
2018-04-19T15:16:40.738Z,5.40
2018-04-19T15:19:08.225Z,5.39
2018-04-19T15:21:35.860Z,5.68
2018-04-19T15:24:03.348Z,5.69
2018-04-19T15:26:30.829Z,6.25
2018-04-19T15:28:58.317Z,5.56
2018-04-19T15:31:25.779Z,6.07
2018-04-19T15:33:53.233Z,6.74
2018-04-19T15:36:20.721Z,5.87
2018-04-19T15:38:48.195Z,7.23
2018-04-19T15:41:15.699Z,6.79
2018-04-19T15:43:43.211Z,7.15
2018-04-19T15:46:10.726Z,5.60
2018-04-19T15:48:38.212Z,6.17
2018-04-19T15:51:05.766Z,7.36
2018-04-19T15:53:33.236Z,6.21
2018-04-19T15:56:00.751Z,6.60
2018-04-19T15:58:28.263Z,7.17
2018-04-19T16:00:55.723Z,7.68
2018-04-19T16:03:23.204Z,7.29
2018-04-19T16:05:50.669Z,7.30
2018-04-19T16:08:18.147Z,7.12
2018-04-19T16:10:45.635Z,6.80
2018-04-19T16:13:13.109Z,7.52
2018-04-19T16:15:40.608Z,8.00
2018-04-19T16:18:08.087Z,7.98
2018-04-19T16:20:35.585Z,7.52
2018-04-19T16:23:03.093Z,7.63
2018-04-19T16:25:30.650Z,8.57
2018-04-19T16:27:58.100Z,8.48
2018-04-19T16:30:25.609Z,7.18
2018-04-19T16:32:53.083Z,8.69
2018-04-19T16:35:20.664Z,7.79
2018-04-19T16:37:48.147Z,8.09
2018-04-19T16:40:15.768Z,8.81
2018-04-19T16:42:43.219Z,8.40
2018-04-19T16:45:10.705Z,10.02
2018-04-19T16:47:38.203Z,10.63
2018-04-19T16:50:05.685Z,9.45
2018-04-19T16:52:33.202Z,8.60
2018-04-19T16:55:00.701Z,8.08
2018-04-19T16:57:28.179Z,8.48
2018-04-19T16:59:55.726Z,9.07
2018-04-19T17:02:23.199Z,10.71
2018-04-19T17:04:50.705Z,10.80
2018-04-19T17:07:18.178Z,10.63
2018-04-19T17:09:45.642Z,12.45
2018-04-19T17:12:13.122Z,13.54
2018-04-19T17:14:40.624Z,13.50
2018-04-19T17:17:08.117Z,15.45
2018-04-19T17:19:35.633Z,16.85
2018-04-19T17:22:03.120Z,16.54
2018-04-19T17:24:30.648Z,18.85
2018-04-19T17:26:58.120Z,19.88
2018-04-19T17:29:25.666Z,18.92
2018-04-19T17:31:53.143Z,22.00
2018-04-19T17:34:20.646Z,19.84
2018-04-19T17:36:48.287Z,20.45
2018-04-19T17:39:15.884Z,21.46
2018-04-19T17:41:43.358Z,20.97
2018-04-19T17:44:16.704Z,23.01
2018-04-19T17:46:44.180Z,21.92
2018-04-19T17:49:11.721Z,25.20
2018-04-19T17:51:42.425Z,21.97
2018-04-19T17:54:10.849Z,24.12
2018-04-19T17:56:38.433Z,22.11
2018-04-19T17:59:05.935Z,24.79
2018-04-19T18:01:33.422Z,24.61
2018-04-19T18:04:00.996Z,24.84
2018-04-19T18:06:30.024Z,23.85
2018-04-19T18:08:57.517Z,24.56
2018-04-19T18:11:24.998Z,26.77
2018-04-19T18:13:52.498Z,24.64
2018-04-19T18:16:20.010Z,25.91
2018-04-19T18:18:47.517Z,27.19
2018-04-19T18:21:14.980Z,28.06
2018-04-19T18:23:42.453Z,28.72
2018-04-19T18:26:10.010Z,28.50
2018-04-19T18:28:37.550Z,27.83
2018-04-19T18:31:05.064Z,29.65
2018-04-19T18:33:32.820Z,34.58
2018-04-19T18:36:03.525Z,33.21
2018-04-19T18:38:31.049Z,36.44
2018-04-19T18:40:58.606Z,33.32
2018-04-19T18:43:26.671Z,35.14
2018-04-19T18:45:54.177Z,35.78
2018-04-19T18:48:21.646Z,36.55
2018-04-19T18:50:51.278Z,35.94
2018-04-19T18:53:18.799Z,34.95
2018-04-19T18:55:46.738Z,37.10
2018-04-19T18:58:14.742Z,37.03
2018-04-19T19:00:42.209Z,37.33
2018-04-19T19:03:15.449Z,34.50
2018-04-19T19:05:43.129Z,32.94
2018-04-19T19:08:10.629Z,33.58
2018-04-19T19:10:38.143Z,35.23
2018-04-19T19:13:05.782Z,37.31
2018-04-19T19:19:03.465Z,37.39
2018-04-19T19:21:30.963Z,36.43
2018-04-19T19:23:58.500Z,36.09
2018-04-19T19:26:25.997Z,38.54
2018-04-19T19:28:53.539Z,38.32
2018-04-19T19:31:21.232Z,36.36
2018-04-19T19:33:48.778Z,37.89
2018-04-19T19:36:16.245Z,38.77
2018-04-19T19:38:43.709Z,37.85
2018-04-19T19:41:11.591Z,39.07
2018-04-19T19:43:39.108Z,39.55
2018-04-19T19:46:06.615Z,39.36
2018-04-19T19:48:34.170Z,38.50
2018-04-19T19:51:01.678Z,38.55
2018-04-19T19:53:29.297Z,37.78
2018-04-19T19:55:57.046Z,39.62
2018-04-19T19:58:26.656Z,38.40
2018-04-19T20:00:55.700Z,37.86
2018-04-19T20:03:23.258Z,38.94
2018-04-19T20:05:50.970Z,35.42
2018-04-19T20:08:18.446Z,35.88
2018-04-19T20:10:47.970Z,39.81
2018-04-19T20:13:15.486Z,40.09
2018-04-19T20:15:43.124Z,37.84
2018-04-19T20:18:10.758Z,40.28
2018-04-19T20:20:38.430Z,39.78
2018-04-19T20:23:05.928Z,40.61
2018-04-19T20:25:33.478Z,41.96
2018-04-19T20:28:01.174Z,40.39
2018-04-19T20:30:28.669Z,41.39
2018-04-19T20:32:56.311Z,42.40
2018-04-19T20:35:23.837Z,41.83
2018-04-19T20:37:51.328Z,41.07
2018-04-19T20:40:18.811Z,41.83
2018-04-19T20:42:46.479Z,41.97
2018-04-19T20:45:14.063Z,42.61
2018-04-19T20:47:41.547Z,40.13
2018-04-19T20:50:09.121Z,40.15
2018-04-19T20:52:37.130Z,37.51
2018-04-19T20:55:04.548Z,41.99
2018-04-19T20:57:32.114Z,40.22
2018-04-19T21:00:00.680Z,43.53
2018-04-19T21:02:28.245Z,40.63
2018-04-19T21:04:55.858Z,42.85
2018-04-19T21:07:23.333Z,42.39
2018-04-19T21:09:51.010Z,42.41
2018-04-19T21:12:18.739Z,41.72
2018-04-19T21:14:47.134Z,40.29
2018-04-19T21:17:15.259Z,42.21
2018-04-19T21:19:42.760Z,44.21
2018-04-19T21:22:11.944Z,42.93
2018-04-19T21:24:39.448Z,41.71
2018-04-19T21:27:07.940Z,42.35
2018-04-19T21:29:35.439Z,42.90
2018-04-19T21:32:02.912Z,42.99
2018-04-19T21:34:31.383Z,39.30
2018-04-19T21:36:58.916Z,43.49
2018-04-19T21:39:26.384Z,41.94
2018-04-19T21:41:53.904Z,43.33
2018-04-19T21:44:21.418Z,40.45
2018-04-19T21:46:49.094Z,41.23
2018-04-19T21:49:16.593Z,42.32
2018-04-19T21:51:44.207Z,43.67
2018-04-19T21:54:11.723Z,42.80
2018-04-19T21:56:39.184Z,41.92
2018-04-19T21:59:06.706Z,44.69
2018-04-19T22:01:34.199Z,42.75
2018-04-19T22:04:01.682Z,41.58
2018-04-19T22:06:29.197Z,41.75
2018-04-19T22:08:56.699Z,42.79
2018-04-19T22:11:24.190Z,41.84
2018-04-19T22:13:51.670Z,43.67
2018-04-19T22:16:19.158Z,42.79
2018-04-19T22:18:46.657Z,43.67
2018-04-19T22:21:14.122Z,44.21
2018-04-19T22:23:41.593Z,41.93
2018-04-19T22:26:09.080Z,43.13
2018-04-19T22:28:36.629Z,43.30
2018-04-19T22:31:04.106Z,40.69
2018-04-19T22:33:31.583Z,44.79
2018-04-19T22:35:59.074Z,42.24
2018-04-19T22:38:26.577Z,43.47
2018-04-19T22:40:54.051Z,44.18
2018-04-19T22:43:21.540Z,44.13
2018-04-19T22:45:49.152Z,45.17
2018-04-19T22:48:16.617Z,40.83
2018-04-19T22:50:44.070Z,42.17
2018-04-19T22:53:11.556Z,44.42
2018-04-19T22:55:39.128Z,44.07
2018-04-19T22:58:06.601Z,44.50
2018-04-19T23:00:34.169Z,44.30
2018-04-19T23:03:01.662Z,46.08
2018-04-19T23:05:29.176Z,44.29
2018-04-19T23:07:56.652Z,44.94
2018-04-19T23:10:24.110Z,44.65
2018-04-19T23:12:51.587Z,45.49
2018-04-19T23:15:19.581Z,46.63
2018-04-19T23:17:47.069Z,46.38
2018-04-19T23:20:14.589Z,46.20
2018-04-19T23:22:42.086Z,44.38
2018-04-19T23:25:09.637Z,43.29
2018-04-19T23:27:37.095Z,44.50
2018-04-19T23:30:04.594Z,45.04
2018-04-19T23:32:32.086Z,44.21
2018-04-19T23:34:59.558Z,44.80
2018-04-19T23:37:27.069Z,44.38
2018-04-19T23:39:54.533Z,43.23
2018-04-19T23:42:22.001Z,43.92
2018-04-19T23:44:49.498Z,45.06
2018-04-19T23:47:16.995Z,42.99
2018-04-19T23:49:44.535Z,45.60
2018-04-19T23:52:12.003Z,44.09
2018-04-19T23:54:39.569Z,44.19
2018-04-19T23:57:07.044Z,46.11
2018-04-19T23:59:34.676Z,44.32
